sensor_id;sensor_type;location;lat;lon;timestamp;pressure;altitude;pressure_sealevel;temperature;humidity
14295;BME280;7231;59.370;18.016;2023-06-26T00:01:03;101368.44;;;18.39;66.83
14295;BME280;7231;59.370;18.016;2023-06-26T00:03:32;101366.66;;;18.38;67.10
14295;BME280;7231;59.370;18.016;2023-06-26T00:06:02;101364.00;;;18.41;67.62
14295;BME280;7231;59.370;18.016;2023-06-26T00:08:30;101359.56;;;18.35;67.73
14295;BME280;7231;59.370;18.016;2023-06-26T00:10:58;101361.28;;;18.29;68.53
14295;BME280;7231;59.370;18.016;2023-06-26T00:13:26;101348.91;;;18.20;68.95
14295;BME280;7231;59.370;18.016;2023-06-26T00:15:54;101339.09;;;18.05;69.45
14295;BME280;7231;59.370;18.016;2023-06-26T00:18:22;101338.22;;;18.06;69.86
14295;BME280;7231;59.370;18.016;2023-06-26T00:20:50;101364.81;;;18.17;70.28
14295;BME280;7231;59.370;18.016;2023-06-26T00:23:19;101364.81;;;18.19;70.82
14295;BME280;7231;59.370;18.016;2023-06-26T00:25:47;101367.47;;;18.15;71.08
14295;BME280;7231;59.370;18.016;2023-06-26T00:28:15;101366.56;;;18.15;71.24
14295;BME280;7231;59.370;18.016;2023-06-26T00:30:43;101366.56;;;18.12;71.83
14295;BME280;7231;59.370;18.016;2023-06-26T00:33:11;101366.50;;;18.04;72.24
14295;BME280;7231;59.370;18.016;2023-06-26T00:35:39;101370.91;;;18.01;72.67
14295;BME280;7231;59.370;18.016;2023-06-26T00:38:07;101372.66;;;17.96;73.13
14295;BME280;7231;59.370;18.016;2023-06-26T00:40:36;101369.09;;;17.92;73.30
14295;BME280;7231;59.370;18.016;2023-06-26T00:43:05;101379.66;;;17.84;73.65
14295;BME280;7231;59.370;18.016;2023-06-26T00:45:32;101370.78;;;17.79;74.00
14295;BME280;7231;59.370;18.016;2023-06-26T00:48:10;101377.84;;;17.79;74.57
14295;BME280;7231;59.370;18.016;2023-06-26T00:50:39;101369.84;;;17.76;74.84
14295;BME280;7231;59.370;18.016;2023-06-26T00:53:09;101359.19;;;17.67;75.49
14295;BME280;7231;59.370;18.016;2023-06-26T00:55:38;101369.78;;;17.67;75.79
14295;BME280;7231;59.370;18.016;2023-06-26T00:58:06;101367.06;;;17.61;76.09
14295;BME280;7231;59.370;18.016;2023-06-26T01:00:34;101365.22;;;17.52;76.11
14295;BME280;7231;59.370;18.016;2023-06-26T01:03:03;101366.94;;;17.44;76.46
14295;BME280;7231;59.370;18.016;2023-06-26T01:05:31;101359.81;;;17.40;76.86
14295;BME280;7231;59.370;18.016;2023-06-26T01:07:59;101366.00;;;17.40;77.27
14295;BME280;7231;59.370;18.016;2023-06-26T01:10:27;101359.84;;;17.43;77.52
14295;BME280;7231;59.370;18.016;2023-06-26T01:12:57;101283.53;;;17.02;77.91
14295;BME280;7231;59.370;18.016;2023-06-26T01:15:25;101362.56;;;17.50;78.03
14295;BME280;7231;59.370;18.016;2023-06-26T01:17:53;101356.38;;;17.50;78.03
14295;BME280;7231;59.370;18.016;2023-06-26T01:20:30;101361.66;;;17.50;78.14
14295;BME280;7231;59.370;18.016;2023-06-26T01:23:20;101374.91;;;17.47;78.76
14295;BME280;7231;59.370;18.016;2023-06-26T01:28:33;101369.59;;;17.45;78.43
14295;BME280;7231;59.370;18.016;2023-06-26T01:31:02;101365.16;;;17.44;78.34
14295;BME280;7231;59.370;18.016;2023-06-26T01:33:32;101358.06;;;17.42;78.55
14295;BME280;7231;59.370;18.016;2023-06-26T01:36:00;101365.97;;;17.37;78.59
14295;BME280;7231;59.370;18.016;2023-06-26T01:38:28;101363.28;;;17.31;78.95
14295;BME280;7231;59.370;18.016;2023-06-26T01:40:56;101356.94;;;17.15;79.31
14295;BME280;7231;59.370;18.016;2023-06-26T01:43:27;101352.44;;;17.07;79.74
14295;BME280;7231;59.370;18.016;2023-06-26T01:46:02;101351.53;;;17.02;80.23
14295;BME280;7231;59.370;18.016;2023-06-26T01:48:34;101363.88;;;17.01;80.27
14295;BME280;7231;59.370;18.016;2023-06-26T01:51:07;101361.19;;;16.97;80.30
14295;BME280;7231;59.370;18.016;2023-06-26T01:53:38;101339.00;;;16.85;80.78
14295;BME280;7231;59.370;18.016;2023-06-26T01:56:13;101362.00;;;16.91;81.37
14295;BME280;7231;59.370;18.016;2023-06-26T01:58:43;101261.66;;;16.38;81.86
14295;BME280;7231;59.370;18.016;2023-06-26T02:01:15;101360.41;;;17.08;82.08
14295;BME280;7231;59.370;18.016;2023-06-26T02:03:43;101250.34;;;16.53;81.92
14295;BME280;7231;59.370;18.016;2023-06-26T02:06:11;101360.50;;;17.16;81.97
14295;BME280;7231;59.370;18.016;2023-06-26T02:08:39;101359.56;;;17.12;82.25
14295;BME280;7231;59.370;18.016;2023-06-26T02:11:07;101359.53;;;17.09;82.18
14295;BME280;7231;59.370;18.016;2023-06-26T02:13:35;101361.28;;;17.07;82.43
14295;BME280;7231;59.370;18.016;2023-06-26T02:16:03;101359.47;;;17.02;82.79
14295;BME280;7231;59.370;18.016;2023-06-26T02:18:33;101357.69;;;17.01;83.35
14295;BME280;7231;59.370;18.016;2023-06-26T02:21:03;101333.84;;;16.99;83.37
14295;BME280;7231;59.370;18.016;2023-06-26T02:23:31;101355.22;;;17.20;83.30
14295;BME280;7231;59.370;18.016;2023-06-26T02:26:00;101347.31;;;17.24;83.13
14295;BME280;7231;59.370;18.016;2023-06-26T02:28:27;101351.72;;;17.25;83.12
14295;BME280;7231;59.370;18.016;2023-06-26T02:30:57;101348.16;;;17.19;83.10
14295;BME280;7231;59.370;18.016;2023-06-26T02:33:25;101268.22;;;16.71;83.35
14295;BME280;7231;59.370;18.016;2023-06-26T02:35:54;101344.56;;;17.14;83.68
14295;BME280;7231;59.370;18.016;2023-06-26T02:38:22;101356.06;;;17.13;83.84
14295;BME280;7231;59.370;18.016;2023-06-26T02:40:50;101315.19;;;16.90;83.93
14295;BME280;7231;59.370;18.016;2023-06-26T02:43:18;101344.53;;;17.08;84.04
14295;BME280;7231;59.370;18.016;2023-06-26T02:45:46;101349.81;;;17.08;84.27
14295;BME280;7231;59.370;18.016;2023-06-26T02:48:14;101344.53;;;17.08;84.75
14295;BME280;7231;59.370;18.016;2023-06-26T02:50:42;101342.78;;;17.12;85.04
14295;BME280;7231;59.370;18.016;2023-06-26T02:53:14;101335.75;;;17.14;85.11
14295;BME280;7231;59.370;18.016;2023-06-26T02:55:42;101330.44;;;17.14;85.14
14295;BME280;7231;59.370;18.016;2023-06-26T02:58:10;101330.47;;;17.17;85.12
14295;BME280;7231;59.370;18.016;2023-06-26T03:00:38;101330.50;;;17.20;85.26
14295;BME280;7231;59.370;18.016;2023-06-26T03:03:08;101327.91;;;17.28;85.04
14295;BME280;7231;59.370;18.016;2023-06-26T03:05:36;101320.91;;;17.34;84.81
14295;BME280;7231;59.370;18.016;2023-06-26T03:08:04;101321.81;;;17.38;84.72
14295;BME280;7231;59.370;18.016;2023-06-26T03:10:34;101323.63;;;17.43;84.55
14295;BME280;7231;59.370;18.016;2023-06-26T03:13:02;101333.38;;;17.49;84.28
14295;BME280;7231;59.370;18.016;2023-06-26T03:15:30;101331.63;;;17.51;84.01
14295;BME280;7231;59.370;18.016;2023-06-26T03:17:58;101330.75;;;17.50;83.63
14295;BME280;7231;59.370;18.016;2023-06-26T03:20:26;101316.59;;;17.48;83.14
14295;BME280;7231;59.370;18.016;2023-06-26T03:22:54;101324.59;;;17.55;83.26
14295;BME280;7231;59.370;18.016;2023-06-26T03:25:22;101327.28;;;17.62;83.21
14295;BME280;7231;59.370;18.016;2023-06-26T03:27:51;101245.81;;;17.40;83.36
14295;BME280;7231;59.370;18.016;2023-06-26T03:30:19;101322.22;;;17.91;83.15
14295;BME280;7231;59.370;18.016;2023-06-26T03:32:47;101325.78;;;17.96;83.17
14295;BME280;7231;59.370;18.016;2023-06-26T03:35:23;101326.69;;;18.00;83.40
14295;BME280;7231;59.370;18.016;2023-06-26T03:37:51;101327.59;;;18.06;83.29
14295;BME280;7231;59.370;18.016;2023-06-26T03:40:19;101331.16;;;18.13;83.49
14295;BME280;7231;59.370;18.016;2023-06-26T03:42:50;101321.47;;;18.18;83.17
14295;BME280;7231;59.370;18.016;2023-06-26T03:45:18;101325.00;;;18.26;82.68
14295;BME280;7231;59.370;18.016;2023-06-26T03:47:46;101317.97;;;18.40;82.26
14295;BME280;7231;59.370;18.016;2023-06-26T03:50:16;101314.47;;;18.52;81.58
14295;BME280;7231;59.370;18.016;2023-06-26T03:52:45;101317.16;;;18.60;81.03
14295;BME280;7231;59.370;18.016;2023-06-26T03:55:13;101311.00;;;18.61;80.26
14295;BME280;7231;59.370;18.016;2023-06-26T03:57:44;101296.78;;;18.59;79.65
14295;BME280;7231;59.370;18.016;2023-06-26T04:00:13;101306.59;;;18.67;79.35
14295;BME280;7231;59.370;18.016;2023-06-26T04:02:41;101299.50;;;18.66;78.92
14295;BME280;7231;59.370;18.016;2023-06-26T04:05:10;101305.69;;;18.64;78.48
14295;BME280;7231;59.370;18.016;2023-06-26T04:07:38;101311.00;;;18.65;78.44
14295;BME280;7231;59.370;18.016;2023-06-26T04:10:08;101308.38;;;18.68;78.27
14295;BME280;7231;59.370;18.016;2023-06-26T04:12:37;101303.06;;;18.74;78.03
14295;BME280;7231;59.370;18.016;2023-06-26T04:15:06;101308.38;;;18.77;77.89
14295;BME280;7231;59.370;18.016;2023-06-26T04:17:34;101302.19;;;18.85;77.36
14295;BME280;7231;59.370;18.016;2023-06-26T04:20:02;101303.97;;;18.84;76.78
14295;BME280;7231;59.370;18.016;2023-06-26T04:22:33;101292.44;;;18.85;76.48
14295;BME280;7231;59.370;18.016;2023-06-26T04:25:03;101296.00;;;18.84;75.97
14295;BME280;7231;59.370;18.016;2023-06-26T04:27:33;101305.75;;;18.85;75.79
14295;BME280;7231;59.370;18.016;2023-06-26T04:30:04;101298.66;;;18.87;75.52
14295;BME280;7231;59.370;18.016;2023-06-26T04:32:32;101292.47;;;18.90;74.92
14295;BME280;7231;59.370;18.016;2023-06-26T04:35:00;101292.47;;;18.90;74.54
14295;BME280;7231;59.370;18.016;2023-06-26T04:37:29;101296.00;;;18.92;74.48
14295;BME280;7231;59.370;18.016;2023-06-26T04:39:57;101291.56;;;18.92;74.55
14295;BME280;7231;59.370;18.016;2023-06-26T04:42:26;101291.56;;;18.97;74.94
14295;BME280;7231;59.370;18.016;2023-06-26T04:44:55;101286.25;;;19.03;74.70
14295;BME280;7231;59.370;18.016;2023-06-26T04:47:23;101292.47;;;19.08;74.34
14295;BME280;7231;59.370;18.016;2023-06-26T04:49:51;101288.03;;;19.14;74.37
14295;BME280;7231;59.370;18.016;2023-06-26T04:52:19;101289.81;;;19.23;74.05
14295;BME280;7231;59.370;18.016;2023-06-26T04:54:47;101288.03;;;19.33;73.50
14295;BME280;7231;59.370;18.016;2023-06-26T04:57:15;101287.16;;;19.40;73.04
14295;BME280;7231;59.370;18.016;2023-06-26T04:59:44;101282.72;;;19.40;72.66
14295;BME280;7231;59.370;18.016;2023-06-26T05:02:14;101279.16;;;19.40;72.75
14295;BME280;7231;59.370;18.016;2023-06-26T05:04:42;101279.16;;;19.43;72.91
14295;BME280;7231;59.370;18.016;2023-06-26T05:07:10;101271.19;;;19.44;72.45
14295;BME280;7231;59.370;18.016;2023-06-26T05:09:38;101269.41;;;19.51;72.09
14295;BME280;7231;59.370;18.016;2023-06-26T05:12:06;101274.75;;;19.59;72.00
14295;BME280;7231;59.370;18.016;2023-06-26T05:14:34;101270.31;;;19.61;71.64
14295;BME280;7231;59.370;18.016;2023-06-26T05:17:03;101275.59;;;19.67;71.64
14295;BME280;7231;59.370;18.016;2023-06-26T05:19:32;101272.91;;;19.77;71.33
14295;BME280;7231;59.370;18.016;2023-06-26T05:22:01;101271.13;;;19.83;71.15
14295;BME280;7231;59.370;18.016;2023-06-26T05:24:30;101264.91;;;19.84;70.80
14295;BME280;7231;59.370;18.016;2023-06-26T05:26:59;101271.13;;;19.87;70.80
14295;BME280;7231;59.370;18.016;2023-06-26T05:29:27;101264.91;;;19.90;70.32
14295;BME280;7231;59.370;18.016;2023-06-26T05:31:56;101266.66;;;19.91;69.61
14295;BME280;7231;59.370;18.016;2023-06-26T05:34:25;101263.13;;;19.90;69.75
14295;BME280;7231;59.370;18.016;2023-06-26T05:36:58;101265.75;;;19.96;69.50
14295;BME280;7231;59.370;18.016;2023-06-26T05:39:27;101266.66;;;19.97;68.95
14295;BME280;7231;59.370;18.016;2023-06-26T05:41:56;101256.88;;;20.02;68.71
14295;BME280;7231;59.370;18.016;2023-06-26T05:44:24;101255.94;;;20.09;68.50
14295;BME280;7231;59.370;18.016;2023-06-26T05:46:52;101261.25;;;20.15;68.34
14295;BME280;7231;59.370;18.016;2023-06-26T05:49:20;101265.66;;;20.24;67.83
14295;BME280;7231;59.370;18.016;2023-06-26T05:51:49;101254.97;;;20.25;67.33
14295;BME280;7231;59.370;18.016;2023-06-26T05:54:18;101258.53;;;20.27;67.63
14295;BME280;7231;59.370;18.016;2023-06-26T05:56:47;101259.38;;;20.32;67.29
14295;BME280;7231;59.370;18.016;2023-06-26T05:59:16;101249.63;;;20.34;67.02
14295;BME280;7231;59.370;18.016;2023-06-26T06:01:45;101257.56;;;20.45;66.59
14295;BME280;7231;59.370;18.016;2023-06-26T06:04:13;101246.03;;;20.46;66.45
14295;BME280;7231;59.370;18.016;2023-06-26T06:06:41;101248.63;;;20.57;65.83
14295;BME280;7231;59.370;18.016;2023-06-26T06:09:09;101252.13;;;20.65;65.40
14295;BME280;7231;59.370;18.016;2023-06-26T06:11:38;101242.28;;;20.74;64.81
14295;BME280;7231;59.370;18.016;2023-06-26T06:14:06;101242.19;;;20.82;64.29
14295;BME280;7231;59.370;18.016;2023-06-26T06:16:34;101237.72;;;20.87;63.63
14295;BME280;7231;59.370;18.016;2023-06-26T06:19:02;101229.69;;;20.90;63.11
14295;BME280;7231;59.370;18.016;2023-06-26T06:21:33;101236.72;;;20.99;62.66
14295;BME280;7231;59.370;18.016;2023-06-26T06:24:01;101225.97;;;21.10;61.78
14295;BME280;7231;59.370;18.016;2023-06-26T06:26:29;101223.22;;;21.17;61.09
14295;BME280;7231;59.370;18.016;2023-06-26T06:28:59;101224.97;;;21.24;60.81
14295;BME280;7231;59.370;18.016;2023-06-26T06:31:27;101226.69;;;21.30;60.36
14295;BME280;7231;59.370;18.016;2023-06-26T06:33:55;101229.28;;;21.37;60.06
14295;BME280;7231;59.370;18.016;2023-06-26T06:36:23;101227.41;;;21.49;59.10
14295;BME280;7231;59.370;18.016;2023-06-26T06:38:51;101224.63;;;21.56;58.88
14295;BME280;7231;59.370;18.016;2023-06-26T06:41:19;101223.69;;;21.62;58.05
14295;BME280;7231;59.370;18.016;2023-06-26T06:43:47;101216.47;;;21.70;57.66
14295;BME280;7231;59.370;18.016;2023-06-26T06:46:17;101222.56;;;21.81;57.29
14295;BME280;7231;59.370;18.016;2023-06-26T06:48:45;101230.50;;;21.87;56.70
14295;BME280;7231;59.370;18.016;2023-06-26T06:51:13;101229.50;;;21.96;56.67
14295;BME280;7231;59.370;18.016;2023-06-26T06:53:41;101223.22;;;22.03;56.22
14295;BME280;7231;59.370;18.016;2023-06-26T06:56:09;101222.28;;;22.07;55.86
14295;BME280;7231;59.370;18.016;2023-06-26T06:58:37;101229.31;;;22.14;55.27
14295;BME280;7231;59.370;18.016;2023-06-26T07:01:07;101221.28;;;22.14;54.66
14295;BME280;7231;59.370;18.016;2023-06-26T07:03:37;101214.97;;;22.21;54.39
14295;BME280;7231;59.370;18.016;2023-06-26T07:06:05;101198.06;;;22.21;54.13
14295;BME280;7231;59.370;18.016;2023-06-26T07:08:33;101184.81;;;22.13;53.30
14295;BME280;7231;59.370;18.016;2023-06-26T07:11:02;101188.31;;;22.17;52.92
14295;BME280;7231;59.370;18.016;2023-06-26T07:13:29;101219.16;;;22.39;52.80
14295;BME280;7231;59.370;18.016;2023-06-26T07:15:57;101209.34;;;22.41;52.65
14295;BME280;7231;59.370;18.016;2023-06-26T07:18:25;101216.38;;;22.47;51.89
14295;BME280;7231;59.370;18.016;2023-06-26T07:20:55;101220.69;;;22.57;51.68
14295;BME280;7231;59.370;18.016;2023-06-26T07:23:23;101215.19;;;22.66;51.05
14295;BME280;7231;59.370;18.016;2023-06-26T07:25:51;101213.31;;;22.73;50.68
14295;BME280;7231;59.370;18.016;2023-06-26T07:28:18;101212.31;;;22.81;50.37
14295;BME280;7231;59.370;18.016;2023-06-26T07:30:46;101205.00;;;22.92;49.81
14295;BME280;7231;59.370;18.016;2023-06-26T07:33:15;101212.81;;;23.05;49.35
14295;BME280;7231;59.370;18.016;2023-06-26T07:35:43;101206.34;;;23.16;49.05
14295;BME280;7231;59.370;18.016;2023-06-26T07:38:12;101207.91;;;23.29;49.41
14295;BME280;7231;59.370;18.016;2023-06-26T07:40:40;101204.00;;;23.44;49.32
14295;BME280;7231;59.370;18.016;2023-06-26T07:43:08;101203.81;;;23.56;49.25
14295;BME280;7231;59.370;18.016;2023-06-26T07:45:36;101194.56;;;23.73;48.75
14295;BME280;7231;59.370;18.016;2023-06-26T07:48:05;101194.25;;;23.88;48.08
14295;BME280;7231;59.370;18.016;2023-06-26T07:50:34;101186.47;;;24.16;47.94
14295;BME280;7231;59.370;18.016;2023-06-26T07:53:02;101194.50;;;24.56;47.88
14295;BME280;7231;59.370;18.016;2023-06-26T07:55:33;101170.56;;;25.19;47.51
14295;BME280;7231;59.370;18.016;2023-06-26T07:58:01;101177.47;;;26.19;46.59
14295;BME280;7231;59.370;18.016;2023-06-26T08:00:29;101172.44;;;27.19;44.73
14295;BME280;7231;59.370;18.016;2023-06-26T08:02:57;101168.38;;;28.04;42.97
14295;BME280;7231;59.370;18.016;2023-06-26T08:05:25;101150.88;;;28.59;41.00
14295;BME280;7231;59.370;18.016;2023-06-26T08:07:53;101161.25;;;29.31;40.41
14295;BME280;7231;59.370;18.016;2023-06-26T08:10:21;101159.94;;;29.99;39.43
14295;BME280;7231;59.370;18.016;2023-06-26T08:12:51;101158.19;;;30.35;38.05
14295;BME280;7231;59.370;18.016;2023-06-26T08:15:19;101156.88;;;30.44;37.69
14295;BME280;7231;59.370;18.016;2023-06-26T08:17:47;101159.75;;;30.77;37.36
14295;BME280;7231;59.370;18.016;2023-06-26T08:20:17;101146.09;;;31.15;36.31
14295;BME280;7231;59.370;18.016;2023-06-26T08:22:46;101154.69;;;31.56;35.89
14295;BME280;7231;59.370;18.016;2023-06-26T08:25:15;101149.69;;;31.81;35.52
14295;BME280;7231;59.370;18.016;2023-06-26T08:27:43;101144.28;;;32.13;35.56
14295;BME280;7231;59.370;18.016;2023-06-26T08:30:13;101142.66;;;32.26;33.81
14295;BME280;7231;59.370;18.016;2023-06-26T08:32:41;101139.56;;;32.16;34.50
14295;BME280;7231;59.370;18.016;2023-06-26T08:35:09;101141.69;;;32.43;34.20
14295;BME280;7231;59.370;18.016;2023-06-26T08:37:37;101066.03;;;32.21;34.09
14295;BME280;7231;59.370;18.016;2023-06-26T08:40:06;101134.72;;;32.69;33.53
14295;BME280;7231;59.370;18.016;2023-06-26T08:42:34;101120.63;;;32.62;33.01
14295;BME280;7231;59.370;18.016;2023-06-26T08:45:02;101127.44;;;32.85;32.66
14295;BME280;7231;59.370;18.016;2023-06-26T08:47:34;101140.09;;;33.00;32.89
14295;BME280;7231;59.370;18.016;2023-06-26T08:50:07;101131.28;;;33.11;32.99
14295;BME280;7231;59.370;18.016;2023-06-26T08:52:38;101134.09;;;33.09;32.47
14295;BME280;7231;59.370;18.016;2023-06-26T08:55:10;101129.66;;;33.22;32.52
14295;BME280;7231;59.370;18.016;2023-06-26T08:57:38;101131.72;;;33.33;31.79
14295;BME280;7231;59.370;18.016;2023-06-26T09:00:08;101129.66;;;33.22;32.63
14295;BME280;7231;59.370;18.016;2023-06-26T09:02:39;101128.50;;;33.27;32.44
14295;BME280;7231;59.370;18.016;2023-06-26T09:05:11;101123.25;;;33.23;33.01
14295;BME280;7231;59.370;18.016;2023-06-26T09:07:39;101116.41;;;33.32;32.57
14295;BME280;7231;59.370;18.016;2023-06-26T09:10:08;101132.72;;;33.61;31.44
14295;BME280;7231;59.370;18.016;2023-06-26T09:12:36;101136.00;;;33.66;30.86
14295;BME280;7231;59.370;18.016;2023-06-26T09:15:05;101137.75;;;33.81;30.87
14295;BME280;7231;59.370;18.016;2023-06-26T09:17:39;101130.53;;;34.08;30.81
14295;BME280;7231;59.370;18.016;2023-06-26T09:20:09;101103.66;;;34.16;30.69
14295;BME280;7231;59.370;18.016;2023-06-26T09:22:37;101131.78;;;34.71;29.82
14295;BME280;7231;59.370;18.016;2023-06-26T09:25:06;101123.72;;;34.69;29.05
14295;BME280;7231;59.370;18.016;2023-06-26T09:27:35;101122.22;;;34.78;28.87
14295;BME280;7231;59.370;18.016;2023-06-26T09:30:04;101120.75;;;34.99;28.97
14295;BME280;7231;59.370;18.016;2023-06-26T09:32:34;101122.53;;;35.26;29.70
14295;BME280;7231;59.370;18.016;2023-06-26T09:35:04;101094.19;;;35.28;28.15
14295;BME280;7231;59.370;18.016;2023-06-26T09:37:34;101107.81;;;35.54;28.41
14295;BME280;7231;59.370;18.016;2023-06-26T09:40:02;101104.00;;;35.56;28.34
14295;BME280;7231;59.370;18.016;2023-06-26T09:42:31;101119.47;;;35.68;28.03
14295;BME280;7231;59.370;18.016;2023-06-26T09:44:59;101112.09;;;35.32;28.58
14295;BME280;7231;59.370;18.016;2023-06-26T09:47:30;101115.16;;;35.40;28.52
14295;BME280;7231;59.370;18.016;2023-06-26T09:49:58;101107.28;;;35.49;28.62
14295;BME280;7231;59.370;18.016;2023-06-26T09:52:27;101101.28;;;35.43;28.59
14295;BME280;7231;59.370;18.016;2023-06-26T09:55:07;101098.78;;;35.53;28.97
14295;BME280;7231;59.370;18.016;2023-06-26T09:57:35;101103.66;;;35.73;28.95
14295;BME280;7231;59.370;18.016;2023-06-26T10:00:03;101098.59;;;35.93;28.82
14295;BME280;7231;59.370;18.016;2023-06-26T10:02:32;101101.13;;;36.20;28.21
14295;BME280;7231;59.370;18.016;2023-06-26T10:05:00;101093.69;;;36.46;28.52
14295;BME280;7231;59.370;18.016;2023-06-26T10:07:29;101083.75;;;36.33;28.21
14295;BME280;7231;59.370;18.016;2023-06-26T10:09:59;101080.16;;;35.96;28.05
14295;BME280;7231;59.370;18.016;2023-06-26T10:12:30;101097.22;;;35.74;28.33
14295;BME280;7231;59.370;18.016;2023-06-26T10:14:58;101090.34;;;35.82;28.56
14295;BME280;7231;59.370;18.016;2023-06-26T10:17:28;101100.72;;;36.13;28.19
14295;BME280;7231;59.370;18.016;2023-06-26T10:19:58;101096.44;;;35.85;28.28
14295;BME280;7231;59.370;18.016;2023-06-26T10:22:36;101096.31;;;34.85;29.21
14295;BME280;7231;59.370;18.016;2023-06-26T10:25:06;101082.69;;;34.45;29.46
14295;BME280;7231;59.370;18.016;2023-06-26T10:27:37;101090.13;;;34.56;29.84
14295;BME280;7231;59.370;18.016;2023-06-26T10:30:10;101094.41;;;34.73;29.79
14295;BME280;7231;59.370;18.016;2023-06-26T10:32:40;101088.75;;;34.76;29.49
14295;BME280;7231;59.370;18.016;2023-06-26T10:35:10;101089.53;;;34.78;29.48
14295;BME280;7231;59.370;18.016;2023-06-26T10:37:44;101087.06;;;34.88;29.95
14295;BME280;7231;59.370;18.016;2023-06-26T10:40:12;101081.31;;;35.05;29.27
14295;BME280;7231;59.370;18.016;2023-06-26T10:42:41;101086.09;;;35.27;29.53
14295;BME280;7231;59.370;18.016;2023-06-26T10:45:10;101083.38;;;35.27;29.16
14295;BME280;7231;59.370;18.016;2023-06-26T10:47:40;101070.72;;;35.26;29.61
14295;BME280;7231;59.370;18.016;2023-06-26T10:50:17;101076.75;;;35.43;28.69
14295;BME280;7231;59.370;18.016;2023-06-26T10:53:15;101078.28;;;35.35;29.36
14295;BME280;7231;59.370;18.016;2023-06-26T10:55:50;101069.63;;;35.03;29.00
14295;BME280;7231;59.370;18.016;2023-06-26T10:58:30;101067.88;;;34.89;29.44
14295;BME280;7231;59.370;18.016;2023-06-26T11:01:17;101071.81;;;34.85;28.34
14295;BME280;7231;59.370;18.016;2023-06-26T11:03:48;101043.03;;;34.41;28.65
14295;BME280;7231;59.370;18.016;2023-06-26T11:06:18;101053.13;;;34.12;29.99
14295;BME280;7231;59.370;18.016;2023-06-26T11:08:50;101061.91;;;34.03;29.96
14295;BME280;7231;59.370;18.016;2023-06-26T11:11:20;101060.47;;;33.98;29.79
14295;BME280;7231;59.370;18.016;2023-06-26T11:13:48;101059.34;;;34.14;29.89
14295;BME280;7231;59.370;18.016;2023-06-26T11:16:16;101061.19;;;34.14;30.06
14295;BME280;7231;59.370;18.016;2023-06-26T11:18:45;101052.50;;;33.95;30.45
14295;BME280;7231;59.370;18.016;2023-06-26T11:21:13;101055.66;;;33.74;29.84
14295;BME280;7231;59.370;18.016;2023-06-26T11:23:41;101042.19;;;33.59;30.35
14295;BME280;7231;59.370;18.016;2023-06-26T11:26:16;101053.72;;;33.76;30.90
14295;BME280;7231;59.370;18.016;2023-06-26T11:28:49;101056.16;;;33.81;30.83
14295;BME280;7231;59.370;18.016;2023-06-26T11:31:27;101049.78;;;33.53;31.15
14295;BME280;7231;59.370;18.016;2023-06-26T11:33:57;101049.22;;;33.34;30.59
14295;BME280;7231;59.370;18.016;2023-06-26T11:36:25;101051.72;;;33.23;30.67
14295;BME280;7231;59.370;18.016;2023-06-26T11:38:53;101049.66;;;33.27;31.50
14295;BME280;7231;59.370;18.016;2023-06-26T11:41:25;101037.81;;;33.28;30.59
14295;BME280;7231;59.370;18.016;2023-06-26T11:43:54;101027.34;;;33.21;31.38
14295;BME280;7231;59.370;18.016;2023-06-26T11:46:22;101034.53;;;33.22;31.17
14295;BME280;7231;59.370;18.016;2023-06-26T11:48:50;101039.38;;;33.17;31.22
14295;BME280;7231;59.370;18.016;2023-06-26T11:51:18;101039.09;;;33.08;32.39
14295;BME280;7231;59.370;18.016;2023-06-26T11:53:47;101043.44;;;32.96;30.85
14295;BME280;7231;59.370;18.016;2023-06-26T11:56:17;101033.47;;;32.67;31.33
14295;BME280;7231;59.370;18.016;2023-06-26T11:58:59;101040.88;;;32.49;31.59
14295;BME280;7231;59.370;18.016;2023-06-26T12:01:31;100963.75;;;32.07;32.86
14295;BME280;7231;59.370;18.016;2023-06-26T12:04:02;101043.22;;;32.55;31.57
14295;BME280;7231;59.370;18.016;2023-06-26T12:06:32;101029.94;;;32.50;31.07
14295;BME280;7231;59.370;18.016;2023-06-26T12:09:03;101046.22;;;32.50;30.80
14295;BME280;7231;59.370;18.016;2023-06-26T12:11:34;101031.03;;;32.16;31.90
14295;BME280;7231;59.370;18.016;2023-06-26T12:14:05;101042.94;;;32.14;31.38
14295;BME280;7231;59.370;18.016;2023-06-26T12:16:34;101030.50;;;32.10;30.74
14295;BME280;7231;59.370;18.016;2023-06-26T12:19:03;101040.59;;;32.08;30.35
14295;BME280;7231;59.370;18.016;2023-06-26T12:21:45;101036.91;;;31.93;30.58
14295;BME280;7231;59.370;18.016;2023-06-26T12:24:14;101026.66;;;31.51;30.36
14295;BME280;7231;59.370;18.016;2023-06-26T12:26:43;101031.56;;;31.11;31.51
14295;BME280;7231;59.370;18.016;2023-06-26T12:29:14;101020.72;;;31.11;31.11
14295;BME280;7231;59.370;18.016;2023-06-26T12:31:45;101021.13;;;31.37;30.82
14295;BME280;7231;59.370;18.016;2023-06-26T12:34:17;101022.09;;;31.51;30.77
14295;BME280;7231;59.370;18.016;2023-06-26T12:36:46;101013.75;;;31.72;30.75
14295;BME280;7231;59.370;18.016;2023-06-26T12:39:17;101003.84;;;31.86;30.00
14295;BME280;7231;59.370;18.016;2023-06-26T12:41:47;101004.03;;;31.99;30.08
14295;BME280;7231;59.370;18.016;2023-06-26T12:44:26;101004.63;;;32.04;30.13
14295;BME280;7231;59.370;18.016;2023-06-26T12:46:56;101004.47;;;31.91;29.77
14295;BME280;7231;59.370;18.016;2023-06-26T12:49:31;101004.97;;;31.67;31.20
14295;BME280;7231;59.370;18.016;2023-06-26T12:52:01;100999.31;;;31.71;30.26
14295;BME280;7231;59.370;18.016;2023-06-26T12:54:29;100994.84;;;31.70;31.38
14295;BME280;7231;59.370;18.016;2023-06-26T12:56:58;100993.44;;;31.94;30.68
14295;BME280;7231;59.370;18.016;2023-06-26T12:59:28;100992.38;;;31.97;29.97
14295;BME280;7231;59.370;18.016;2023-06-26T13:01:56;100991.25;;;32.01;29.48
14295;BME280;7231;59.370;18.016;2023-06-26T13:04:24;101003.59;;;31.75;29.45